Time;durP1;ratioP1;P1;durP2;ratioP2;P2;SDS_P1;SDS_P2;PMS_P1;PMS_P2;Temp;Humidity;BMP_temperature;BMP_pressure;BME280_temperature;BME280_humidity;BME280_pressure;Samples;Min_cycle;Max_cycle;Signal;HPM_P1;HPM_P2
2022/01/17 00:01:49;;;;;;;32.63;20.03;;;1.40;99.90;;;;;;5029972;28;20506;-79
2022/01/17 00:04:16;;;;;;;35.90;21.73;;;1.40;99.90;;;;;;5030047;28;20021;-78
2022/01/17 00:06:43;;;;;;;31.93;20.30;;;1.40;99.90;;;;;;5030054;28;20026;-79
2022/01/17 00:09:09;;;;;;;32.07;19.87;;;1.40;99.90;;;;;;5030241;28;20109;-78
2022/01/17 00:11:39;;;;;;;35.37;20.73;;;1.40;99.90;;;;;;5031171;28;20102;-78
2022/01/17 00:14:11;;;;;;;34.47;20.77;;;1.40;99.90;;;;;;5032648;28;20381;-79
2022/01/17 00:16:42;;;;;;;33.70;20.30;;;1.50;99.90;;;;;;5033727;28;20120;-79
2022/01/17 00:21:49;;;;;;;34.77;20.07;;;1.50;99.90;;;;;;5033866;28;20083;-78
2022/01/17 00:24:15;;;;;;;34.00;20.73;;;1.60;99.90;;;;;;5033814;28;20029;-79
2022/01/17 00:26:44;;;;;;;36.13;21.10;;;1.80;99.90;;;;;;5032284;28;20024;-78
2022/01/17 00:29:09;;;;;;;33.33;20.30;;;1.80;99.90;;;;;;5033851;28;20084;-78
2022/01/17 00:31:35;;;;;;;31.17;19.33;;;1.70;99.90;;;;;;5033606;28;20034;-78
2022/01/17 00:34:00;;;;;;;31.47;19.93;;;1.80;99.90;;;;;;5033267;28;20046;-78
2022/01/17 00:36:26;;;;;;;34.40;21.03;;;1.80;99.90;;;;;;5033726;28;20018;-79
2022/01/17 00:38:51;;;;;;;33.53;19.90;;;1.80;99.90;;;;;;5033477;28;20033;-78
2022/01/17 00:41:17;;;;;;;31.73;19.80;;;1.80;99.90;;;;;;5032150;28;20067;-79
2022/01/17 00:43:42;;;;;;;32.73;20.53;;;1.80;99.90;;;;;;5033243;28;20022;-78
2022/01/17 00:46:09;;;;;;;30.57;19.63;;;1.80;99.90;;;;;;5032079;28;20029;-78
2022/01/17 00:48:35;;;;;;;30.93;19.03;;;1.80;99.90;;;;;;5033439;28;20024;-79
2022/01/17 00:51:00;;;;;;;30.70;19.00;;;1.70;99.90;;;;;;5033507;28;20096;-78
2022/01/17 00:53:26;;;;;;;30.90;19.77;;;1.80;99.90;;;;;;5031971;28;20148;-78
2022/01/17 00:55:51;;;;;;;30.67;18.43;;;1.90;99.90;;;;;;5033021;28;20021;-79
2022/01/17 00:58:17;;;;;;;32.03;19.70;;;1.90;99.90;;;;;;5033433;28;20378;-79
2022/01/17 01:00:42;;;;;;;31.57;18.70;;;1.80;99.90;;;;;;5032989;28;20104;-78
2022/01/17 01:03:08;;;;;;;31.07;18.07;;;1.80;99.90;;;;;;5033027;28;20051;-79
2022/01/17 01:05:34;;;;;;;29.00;18.10;;;1.80;99.90;;;;;;5031423;28;20026;-79
2022/01/17 01:08:00;;;;;;;31.03;18.07;;;1.80;99.90;;;;;;5032972;28;20034;-79
2022/01/17 01:10:25;;;;;;;32.70;17.87;;;1.80;99.90;;;;;;5032981;28;20100;-79
2022/01/17 01:12:52;;;;;;;27.40;16.30;;;1.80;99.90;;;;;;5032943;28;20099;-79
2022/01/17 01:15:33;;;;;;;26.97;15.47;;;1.90;99.90;;;;;;5032668;28;20032;-79
2022/01/17 01:18:01;;;;;;;23.53;14.57;;;1.90;99.90;;;;;;5032727;28;20056;-79
2022/01/17 01:28:41;;;;;;;21.40;13.40;;;1.90;99.90;;;;;;5023861;28;20030;-79
2022/01/17 01:31:26;;;;;;;22.73;12.97;;;1.90;99.90;;;;;;5032859;28;20371;-79
2022/01/17 01:33:55;;;;;;;22.27;13.20;;;2.00;99.90;;;;;;5032200;28;20033;-79
2022/01/17 01:36:27;;;;;;;23.67;14.20;;;2.00;99.90;;;;;;5032278;28;20022;-79
2022/01/17 01:38:53;;;;;;;20.40;12.50;;;2.00;99.90;;;;;;5032246;28;20113;-78
2022/01/17 01:41:20;;;;;;;21.00;12.63;;;2.10;99.90;;;;;;5031015;28;20453;-79
2022/01/17 01:43:46;;;;;;;23.17;14.17;;;2.20;99.90;;;;;;5032269;28;20104;-79
2022/01/17 01:46:14;;;;;;;24.60;13.47;;;2.20;99.90;;;;;;5032406;28;20139;-79
2022/01/17 01:48:40;;;;;;;21.37;12.57;;;2.10;99.90;;;;;;5031101;28;20030;-79
2022/01/17 01:51:07;;;;;;;20.60;11.60;;;2.30;99.90;;;;;;5032064;28;20514;-79
2022/01/17 01:53:32;;;;;;;20.03;12.33;;;2.30;99.90;;;;;;5032076;28;20614;-79
2022/01/17 01:55:58;;;;;;;20.30;12.23;;;2.30;99.90;;;;;;5030979;28;20045;-79
2022/01/17 01:58:26;;;;;;;19.50;11.83;;;2.20;99.90;;;;;;5030983;28;20053;-79
2022/01/17 02:00:53;;;;;;;18.33;11.50;;;2.30;99.90;;;;;;5031897;28;20086;-79
2022/01/17 02:03:19;;;;;;;21.93;12.20;;;2.20;99.90;;;;;;5032136;28;20244;-79
2022/01/17 02:05:45;;;;;;;19.30;12.03;;;2.10;99.90;;;;;;5030415;28;20038;-78
2022/01/17 02:08:12;;;;;;;20.07;10.70;;;2.10;99.90;;;;;;5030731;28;20179;-77
2022/01/17 02:10:37;;;;;;;17.40;10.70;;;2.10;99.90;;;;;;5031803;28;20065;-77
2022/01/17 02:13:03;;;;;;;17.90;10.27;;;2.10;99.90;;;;;;5031821;28;20482;-77
2022/01/17 02:15:29;;;;;;;16.33;10.23;;;2.10;99.90;;;;;;5031901;28;20076;-78
2022/01/17 02:17:55;;;;;;;16.83;9.93;;;2.20;99.90;;;;;;5031823;28;20040;-78
2022/01/17 02:20:41;;;;;;;15.87;10.07;;;2.30;99.90;;;;;;5031656;28;20359;-79
2022/01/17 02:23:08;;;;;;;18.10;9.65;;;2.40;99.90;;;;;;5030570;28;20383;-79
2022/01/17 02:25:33;;;;;;;16.33;10.10;;;2.40;99.90;;;;;;5031452;28;20502;-80
2022/01/17 02:28:00;;;;;;;20.07;9.80;;;2.40;99.90;;;;;;5031794;28;20163;-79
2022/01/17 02:30:27;;;;;;;16.77;10.37;;;2.40;99.90;;;;;;5031787;28;20025;-79
2022/01/17 02:32:53;;;;;;;14.87;9.27;;;2.30;99.90;;;;;;5030784;28;20097;-79
2022/01/17 02:35:24;;;;;;;13.77;9.07;;;2.40;99.90;;;;;;5031001;28;20514;-79
2022/01/17 02:37:51;;;;;;;17.30;10.07;;;2.40;99.90;;;;;;5011121;28;20041;-79
2022/01/17 02:40:18;;;;;;;15.67;9.37;;;2.40;99.90;;;;;;5011465;28;20038;-79
2022/01/17 02:42:48;;;;;;;14.93;8.73;;;2.40;99.90;;;;;;5011679;28;20049;-79
2022/01/17 02:45:31;;;;;;;14.53;8.67;;;2.30;99.90;;;;;;5011583;28;20033;-79
2022/01/17 02:47:58;;;;;;;12.80;8.27;;;2.40;99.90;;;;;;5011721;28;20483;-79
2022/01/17 02:50:24;;;;;;;14.73;9.00;;;2.50;99.90;;;;;;5011023;28;20030;-79
2022/01/17 02:52:49;;;;;;;14.70;9.13;;;2.40;99.90;;;;;;5011176;28;20529;-79
2022/01/17 02:55:15;;;;;;;13.40;8.20;;;2.30;99.90;;;;;;5011228;28;20032;-79
2022/01/17 02:57:40;;;;;;;13.63;8.27;;;2.40;99.90;;;;;;5011799;28;20049;-79
2022/01/17 03:00:09;;;;;;;13.33;9.00;;;2.40;99.90;;;;;;5011300;28;20034;-79
2022/01/17 03:02:35;;;;;;;16.97;9.83;;;2.50;99.90;;;;;;5011233;28;20041;-79
2022/01/17 03:05:01;;;;;;;15.30;8.53;;;2.40;99.90;;;;;;5011068;28;20792;-79
2022/01/17 03:07:26;;;;;;;13.83;8.30;;;2.30;99.90;;;;;;5011208;28;20029;-79
2022/01/17 03:10:03;;;;;;;13.67;8.37;;;2.30;99.90;;;;;;5010880;28;20144;-79
2022/01/17 03:12:30;;;;;;;13.60;8.53;;;2.30;99.90;;;;;;5011129;28;20486;-79
2022/01/17 03:14:56;;;;;;;13.93;8.40;;;2.40;99.90;;;;;;5025732;28;20033;-79
2022/01/17 03:17:22;;;;;;;12.17;7.73;;;2.30;99.90;;;;;;5010502;28;20168;-79
2022/01/17 03:19:47;;;;;;;14.83;7.77;;;2.30;99.90;;;;;;5025711;28;20120;-79
2022/01/17 03:22:13;;;;;;;12.47;8.17;;;2.20;99.90;;;;;;5010825;28;20026;-79
2022/01/17 03:24:38;;;;;;;13.43;7.93;;;2.30;99.90;;;;;;5010879;28;20105;-79
2022/01/17 03:27:04;;;;;;;15.13;8.17;;;2.20;99.90;;;;;;5026192;28;20026;-79
2022/01/17 03:29:30;;;;;;;15.67;9.23;;;2.10;99.90;;;;;;5010766;28;20030;-79
2022/01/17 03:31:56;;;;;;;13.90;8.47;;;2.10;99.90;;;;;;5021074;28;20033;-79
2022/01/17 03:34:21;;;;;;;14.37;8.53;;;2.00;99.90;;;;;;5033001;28;20053;-78
2022/01/17 03:36:47;;;;;;;14.60;8.73;;;2.00;99.90;;;;;;5029144;28;20025;-78
2022/01/17 03:39:12;;;;;;;14.10;9.10;;;2.00;99.90;;;;;;5031712;28;20064;-78
2022/01/17 03:41:38;;;;;;;13.93;8.80;;;2.10;99.90;;;;;;5028720;28;20520;-79
2022/01/17 03:44:04;;;;;;;13.33;8.43;;;2.20;99.90;;;;;;5029537;28;20080;-79
2022/01/17 03:46:29;;;;;;;13.83;9.17;;;2.20;99.90;;;;;;5030333;28;20068;-80
2022/01/17 03:48:55;;;;;;;13.97;8.50;;;2.20;99.90;;;;;;5046223;28;20075;-79
2022/01/17 03:51:21;;;;;;;14.57;8.53;;;2.40;99.90;;;;;;5041179;28;20112;-87
2022/01/17 03:53:46;;;;;;;12.33;7.97;;;2.40;99.90;;;;;;5032255;28;20022;-85
2022/01/17 03:56:12;;;;;;;13.57;8.40;;;2.40;99.90;;;;;;5031197;28;20056;-85
2022/01/17 03:58:37;;;;;;;17.80;9.33;;;2.30;99.90;;;;;;5035379;28;20017;-85
2022/01/17 04:01:03;;;;;;;14.97;8.80;;;2.30;99.90;;;;;;5052434;28;20025;-87
2022/01/17 04:03:29;;;;;;;12.27;8.40;;;2.30;99.90;;;;;;5050980;28;20136;-85
2022/01/17 04:05:56;;;;;;;15.13;9.53;;;2.30;99.90;;;;;;5051925;28;20078;-79
2022/01/17 04:08:22;;;;;;;15.00;9.07;;;2.20;99.90;;;;;;5050195;28;20092;-79
2022/01/17 04:10:47;;;;;;;13.47;8.47;;;2.20;99.90;;;;;;5050235;28;20538;-79
2022/01/17 04:13:13;;;;;;;14.13;8.30;;;2.30;99.90;;;;;;5049901;28;20104;-79
2022/01/17 04:15:39;;;;;;;11.83;7.53;;;2.20;99.90;;;;;;5049811;28;20064;-79
2022/01/17 04:18:07;;;;;;;17.47;9.57;;;2.20;99.90;;;;;;5049862;28;20429;-79
2022/01/17 04:20:33;;;;;;;13.53;8.63;;;2.20;99.90;;;;;;5049843;28;20112;-79
2022/01/17 04:23:02;;;;;;;15.00;8.53;;;2.10;99.90;;;;;;5049906;28;20439;-79
2022/01/17 04:25:30;;;;;;;12.43;8.07;;;2.20;99.90;;;;;;5049624;28;20052;-79
2022/01/17 04:27:57;;;;;;;13.23;8.33;;;2.30;99.90;;;;;;5049631;28;20377;-79
2022/01/17 04:30:23;;;;;;;11.63;7.83;;;2.30;99.90;;;;;;5050066;28;20027;-79
2022/01/17 04:32:49;;;;;;;14.77;8.17;;;2.30;99.90;;;;;;5048285;28;20025;-79
2022/01/17 04:35:20;;;;;;;15.87;8.10;;;2.30;99.90;;;;;;5049598;28;20182;-79
2022/01/17 04:37:52;;;;;;;14.50;8.00;;;2.30;99.90;;;;;;5049909;28;20032;-79
2022/01/17 04:40:19;;;;;;;12.77;7.90;;;2.20;99.90;;;;;;5048265;28;20036;-79
2022/01/17 04:42:47;;;;;;;13.30;7.83;;;2.30;99.90;;;;;;5049626;28;20021;-79
2022/01/17 04:45:18;;;;;;;12.70;7.83;;;2.20;99.90;;;;;;5049559;28;20029;-78
2022/01/17 04:47:47;;;;;;;11.57;7.80;;;2.20;99.90;;;;;;5049481;28;20029;-79
2022/01/17 04:50:16;;;;;;;13.07;8.10;;;2.20;99.90;;;;;;5048121;28;20147;-79
2022/01/17 04:52:42;;;;;;;11.93;7.93;;;2.20;99.90;;;;;;5049720;28;20031;-78
2022/01/17 04:55:10;;;;;;;15.23;9.10;;;2.20;99.90;;;;;;5049568;28;20143;-78
2022/01/17 04:57:37;;;;;;;15.13;8.93;;;2.20;99.90;;;;;;5051849;28;20028;-78
2022/01/17 05:00:06;;;;;;;13.60;8.67;;;2.20;99.90;;;;;;5053017;28;20032;-79
2022/01/17 05:02:32;;;;;;;13.00;8.70;;;2.20;99.90;;;;;;5053210;28;20126;-79
2022/01/17 05:04:57;;;;;;;15.10;9.27;;;2.20;99.90;;;;;;5051435;28;20489;-79
2022/01/17 05:07:23;;;;;;;15.93;9.30;;;2.20;99.90;;;;;;5052912;28;20096;-79
2022/01/17 05:09:48;;;;;;;12.03;8.30;;;2.20;99.90;;;;;;5051672;28;20151;-79
2022/01/17 05:12:14;;;;;;;13.07;8.97;;;2.20;99.90;;;;;;5052743;28;20017;-68
2022/01/17 05:14:43;;;;;;;13.93;8.50;;;2.30;99.90;;;;;;5052010;28;20017;-80
2022/01/17 05:17:24;;;;;;;12.83;7.87;;;2.30;99.90;;;;;;5052902;28;20041;-79
2022/01/17 05:19:52;;;;;;;15.83;8.93;;;2.30;99.90;;;;;;5051135;28;20477;-79
2022/01/17 05:22:19;;;;;;;12.17;8.10;;;2.40;99.90;;;;;;5016095;28;20052;-80
2022/01/17 05:24:45;;;;;;;12.43;7.83;;;2.40;99.90;;;;;;5029574;28;20026;-80
2022/01/17 05:27:12;;;;;;;12.80;7.50;;;2.40;99.90;;;;;;5029730;28;20017;-79
2022/01/17 05:29:37;;;;;;;10.87;7.90;;;2.30;99.90;;;;;;5032238;28;20017;-80
2022/01/17 05:32:04;;;;;;;11.53;7.93;;;2.40;99.90;;;;;;5032240;28;20020;-79
2022/01/17 05:34:30;;;;;;;11.43;7.17;;;2.40;99.90;;;;;;5031779;28;20118;-79
2022/01/17 05:36:55;;;;;;;12.93;7.50;;;2.40;99.90;;;;;;5032259;28;20033;-79
2022/01/17 05:39:21;;;;;;;12.77;7.57;;;2.40;99.90;;;;;;5032073;28;20030;-80
2022/01/17 05:41:47;;;;;;;13.60;7.90;;;2.40;99.90;;;;;;5029437;28;20394;-79
2022/01/17 05:44:12;;;;;;;15.03;7.57;;;2.50;99.90;;;;;;5030616;28;20021;-79
2022/01/17 05:46:38;;;;;;;9.90;6.83;;;2.50;99.90;;;;;;5030042;28;20032;-79
2022/01/17 05:49:03;;;;;;;14.57;7.67;;;2.50;99.90;;;;;;5031733;28;20049;-79
2022/01/17 05:51:29;;;;;;;10.60;7.17;;;2.50;99.90;;;;;;5031856;28;20527;-79
2022/01/17 05:53:55;;;;;;;13.43;7.50;;;2.60;99.90;;;;;;5031363;28;20071;-79
2022/01/17 05:56:20;;;;;;;12.40;7.77;;;2.60;99.90;;;;;;5031658;28;20025;-79
2022/01/17 05:58:46;;;;;;;10.97;7.07;;;2.60;99.90;;;;;;5031609;28;20147;-79
2022/01/17 06:01:13;;;;;;;11.23;6.97;;;2.60;99.90;;;;;;5028827;28;20057;-79
2022/01/17 06:03:38;;;;;;;11.70;7.53;;;2.60;99.90;;;;;;5028900;28;20149;-79
2022/01/17 06:06:05;;;;;;;10.03;6.63;;;2.60;99.90;;;;;;5027418;28;20113;-80
2022/01/17 06:08:31;;;;;;;12.77;6.83;;;2.60;99.90;;;;;;5031052;28;20026;-79
2022/01/17 06:10:56;;;;;;;11.50;7.67;;;2.70;99.90;;;;;;5025902;28;20030;-79
2022/01/17 06:13:22;;;;;;;13.07;6.97;;;2.70;99.90;;;;;;5020197;28;20108;-79
2022/01/17 06:15:47;;;;;;;11.00;7.10;;;2.80;99.90;;;;;;5030031;28;20048;-79
2022/01/17 06:18:13;;;;;;;11.23;7.27;;;2.90;99.90;;;;;;5029264;28;20065;-80
2022/01/17 06:20:39;;;;;;;11.07;6.47;;;2.80;99.90;;;;;;5031646;28;20482;-79
2022/01/17 06:23:04;;;;;;;11.67;7.43;;;2.80;99.90;;;;;;5030568;28;20131;-80
2022/01/17 06:25:30;;;;;;;12.50;7.63;;;2.80;99.90;;;;;;5031896;28;20029;-79
2022/01/17 06:27:55;;;;;;;12.37;6.87;;;2.80;99.90;;;;;;5030738;28;20029;-80
2022/01/17 06:30:21;;;;;;;12.47;7.83;;;2.80;99.90;;;;;;5031568;28;20079;-80
2022/01/17 06:32:47;;;;;;;9.70;6.80;;;2.80;99.90;;;;;;5031699;28;20386;-79
2022/01/17 06:35:12;;;;;;;12.37;7.23;;;2.70;99.90;;;;;;5031535;28;20092;-80
2022/01/17 06:37:39;;;;;;;11.97;7.70;;;2.70;99.90;;;;;;5031485;28;20030;-80
2022/01/17 06:40:07;;;;;;;13.10;8.07;;;2.80;99.90;;;;;;5031883;28;20033;-80
2022/01/17 06:42:33;;;;;;;12.30;7.17;;;2.70;99.90;;;;;;5031402;28;20033;-80
2022/01/17 06:45:04;;;;;;;11.77;7.60;;;2.80;99.90;;;;;;5031861;28;20041;-79
2022/01/17 06:47:31;;;;;;;11.60;6.97;;;2.80;99.90;;;;;;5027226;28;20053;-79
2022/01/17 06:49:56;;;;;;;10.03;7.20;;;2.70;99.90;;;;;;5031397;28;20048;-79
2022/01/17 06:52:23;;;;;;;12.47;7.27;;;2.70;99.90;;;;;;5030159;28;20029;-79
2022/01/17 06:54:50;;;;;;;10.80;7.43;;;2.80;99.90;;;;;;5030386;28;20041;-79
2022/01/17 06:57:16;;;;;;;13.23;7.97;;;2.80;99.90;;;;;;5029328;28;20029;-79
2022/01/17 06:59:41;;;;;;;13.23;6.93;;;2.80;99.90;;;;;;5029319;28;20035;-79
2022/01/17 07:02:08;;;;;;;11.53;6.77;;;2.70;99.90;;;;;;5029369;28;20034;-78
2022/01/17 07:04:33;;;;;;;12.33;7.33;;;2.70;99.90;;;;;;5029441;28;20039;-78
2022/01/17 07:07:00;;;;;;;10.87;6.87;;;2.80;99.90;;;;;;5028872;28;20140;-78
2022/01/17 07:09:25;;;;;;;10.80;6.83;;;2.70;99.90;;;;;;5029069;28;20447;-78
2022/01/17 07:11:51;;;;;;;11.57;7.27;;;2.70;99.90;;;;;;5028893;28;20071;-80
2022/01/17 07:14:17;;;;;;;11.23;7.10;;;2.70;99.90;;;;;;5029031;28;20021;-78
2022/01/17 07:16:42;;;;;;;10.10;6.57;;;2.80;99.90;;;;;;5029090;28;20580;-78
2022/01/17 07:19:09;;;;;;;11.50;7.30;;;2.80;99.90;;;;;;5028394;28;20053;-77
2022/01/17 07:21:35;;;;;;;12.03;6.93;;;2.70;99.90;;;;;;5027477;28;20083;-77
2022/01/17 07:24:01;;;;;;;12.63;7.50;;;2.80;99.90;;;;;;5028458;28;20727;-78
2022/01/17 07:26:26;;;;;;;10.97;6.63;;;2.70;99.90;;;;;;5028676;28;20128;-78
2022/01/17 07:28:52;;;;;;;10.77;7.10;;;2.80;99.90;;;;;;5028684;28;20037;-78
2022/01/17 07:31:18;;;;;;;10.70;6.80;;;2.80;99.90;;;;;;5029085;28;20049;-78
2022/01/17 07:33:44;;;;;;;9.77;6.77;;;2.80;99.90;;;;;;5028700;28;20823;-78
2022/01/17 07:36:15;;;;;;;10.43;6.87;;;2.80;99.90;;;;;;5028816;28;20045;-78
2022/01/17 07:38:41;;;;;;;10.23;7.17;;;2.90;99.90;;;;;;5028525;28;20037;-78
2022/01/17 07:41:08;;;;;;;10.60;6.93;;;3.00;99.90;;;;;;5028845;28;20037;-78
2022/01/17 07:43:36;;;;;;;10.50;6.70;;;3.00;99.90;;;;;;5028400;28;20029;-79
2022/01/17 07:46:05;;;;;;;11.47;6.90;;;3.00;99.90;;;;;;5028660;28;20037;-78
2022/01/17 07:51:11;;;;;;;11.87;7.20;;;3.10;99.90;;;;;;5028316;28;20112;-78
2022/01/17 07:53:38;;;;;;;11.23;7.23;;;3.10;99.90;;;;;;5026655;28;20408;-78
2022/01/17 07:56:04;;;;;;;11.37;7.87;;;3.10;99.90;;;;;;5028670;28;20119;-78
2022/01/17 07:58:30;;;;;;;10.47;7.40;;;3.10;99.90;;;;;;5028263;28;20513;-78
2022/01/17 08:00:56;;;;;;;10.37;7.23;;;3.20;99.90;;;;;;5027783;28;20052;-79
2022/01/17 08:03:22;;;;;;;12.13;7.10;;;3.20;99.90;;;;;;5027972;28;20336;-78
2022/01/17 08:05:47;;;;;;;11.50;7.03;;;3.10;99.90;;;;;;5028091;28;20040;-78
2022/01/17 08:08:13;;;;;;;10.70;6.80;;;3.20;99.90;;;;;;5028062;28;20033;-79
2022/01/17 08:10:39;;;;;;;11.53;7.20;;;3.20;99.90;;;;;;5028722;28;20458;-78
2022/01/17 08:13:04;;;;;;;11.00;6.83;;;3.20;99.90;;;;;;5028604;28;20056;-79
2022/01/17 08:15:33;;;;;;;13.27;8.13;;;3.20;99.90;;;;;;5026723;28;20079;-78
2022/01/17 08:17:58;;;;;;;10.87;7.00;;;3.20;99.90;;;;;;5027119;28;20037;-78
2022/01/17 08:20:24;;;;;;;10.17;7.27;;;3.20;99.90;;;;;;5028339;28;20036;-77
2022/01/17 08:22:50;;;;;;;15.33;7.20;;;3.20;99.90;;;;;;5028162;28;20037;-78
2022/01/17 08:25:16;;;;;;;10.93;7.50;;;3.20;99.90;;;;;;5028380;28;20037;-78
2022/01/17 08:27:42;;;;;;;11.60;7.70;;;3.20;99.90;;;;;;5027001;28;20033;-78
2022/01/17 08:30:08;;;;;;;11.80;6.80;;;3.30;99.90;;;;;;5028121;28;20035;-78
2022/01/17 08:32:33;;;;;;;11.07;7.20;;;3.30;99.90;;;;;;5030280;28;20029;-78
2022/01/17 08:35:00;;;;;;;10.57;7.50;;;3.30;99.90;;;;;;5030811;28;20363;-79
2022/01/17 08:37:26;;;;;;;12.67;7.90;;;3.40;99.90;;;;;;5030592;28;20029;-79
2022/01/17 08:39:53;;;;;;;15.60;8.20;;;3.30;99.90;;;;;;5032019;28;20040;-79
2022/01/17 08:42:19;;;;;;;13.10;8.77;;;3.40;99.90;;;;;;5031837;28;20030;-79
2022/01/17 08:44:50;;;;;;;12.17;8.30;;;3.40;99.90;;;;;;5031841;28;20030;-79
2022/01/17 08:47:18;;;;;;;11.60;7.10;;;3.40;99.90;;;;;;5032290;28;20390;-80
2022/01/17 08:49:44;;;;;;;12.47;8.40;;;3.50;99.90;;;;;;5030633;28;20030;-79
2022/01/17 08:52:10;;;;;;;12.07;8.23;;;3.50;99.90;;;;;;5031553;28;20833;-79
2022/01/17 08:54:36;;;;;;;11.47;7.63;;;3.40;99.90;;;;;;5032163;28;20034;-79
2022/01/17 08:57:02;;;;;;;10.27;7.20;;;3.40;99.90;;;;;;5033598;28;20030;-80
2022/01/17 08:59:31;;;;;;;13.07;8.17;;;3.60;99.90;;;;;;5033493;28;20040;-79
2022/01/17 09:01:57;;;;;;;10.90;7.10;;;3.80;99.90;;;;;;5033251;28;20030;-79
2022/01/17 09:04:23;;;;;;;9.87;6.80;;;3.80;99.90;;;;;;5033111;28;20087;-79
2022/01/17 09:06:48;;;;;;;12.27;6.97;;;3.80;99.90;;;;;;5033622;28;20203;-79
2022/01/17 09:09:16;;;;;;;11.53;7.53;;;3.80;99.90;;;;;;5033413;28;20061;-79
2022/01/17 09:11:42;;;;;;;10.47;7.37;;;3.90;99.90;;;;;;5033340;28;20040;-78
2022/01/17 09:14:08;;;;;;;11.93;7.23;;;4.00;99.90;;;;;;5031997;28;20033;-77
2022/01/17 09:16:34;;;;;;;10.80;7.03;;;4.00;99.90;;;;;;5033246;28;20037;-77
2022/01/17 09:19:01;;;;;;;10.43;7.10;;;4.00;99.90;;;;;;5033279;28;20044;-77
2022/01/17 09:21:27;;;;;;;11.70;6.87;;;4.00;99.90;;;;;;5030491;28;20589;-78
2022/01/17 09:23:57;;;;;;;12.60;7.47;;;4.10;99.90;;;;;;5030418;28;20105;-79
2022/01/17 09:26:25;;;;;;;11.53;7.23;;;4.10;99.90;;;;;;5021640;28;20091;-83
2022/01/17 09:28:52;;;;;;;12.23;7.23;;;4.10;99.90;;;;;;5024132;28;20037;-83
2022/01/17 09:31:17;;;;;;;12.20;7.10;;;4.10;99.90;;;;;;5024789;28;20108;-83
2022/01/17 09:33:43;;;;;;;12.27;6.97;;;4.10;99.90;;;;;;5025028;28;20817;-83
2022/01/17 09:36:08;;;;;;;11.17;7.27;;;4.20;99.90;;;;;;5029321;28;20037;-82
2022/01/17 09:38:34;;;;;;;13.27;7.43;;;4.10;99.90;;;;;;5026464;28;20053;-83
2022/01/17 09:41:01;;;;;;;10.20;6.93;;;4.10;99.90;;;;;;5025970;28;20033;-82
2022/01/17 09:43:27;;;;;;;10.13;6.67;;;4.00;99.90;;;;;;5024258;28;20053;-83
2022/01/17 09:45:52;;;;;;;10.10;6.83;;;4.20;99.90;;;;;;5026017;28;20394;-82
2022/01/17 09:48:21;;;;;;;10.63;6.90;;;4.30;99.90;;;;;;5023379;28;20025;-84
2022/01/17 09:51:01;;;;;;;9.90;6.60;;;4.30;99.90;;;;;;5027685;28;20030;-83
2022/01/17 09:53:28;;;;;;;10.70;6.40;;;4.30;99.90;;;;;;5027817;28;20022;-84
2022/01/17 09:55:58;;;;;;;9.77;6.50;;;4.40;99.90;;;;;;5024541;28;20037;-84
2022/01/17 09:58:25;;;;;;;11.73;6.77;;;4.50;99.90;;;;;;5024622;28;20032;-84
2022/01/17 10:00:50;;;;;;;10.53;6.83;;;4.60;99.90;;;;;;5028836;28;20069;-83
2022/01/17 10:03:19;;;;;;;11.03;6.80;;;4.70;99.90;;;;;;5024511;28;20509;-84
2022/01/17 10:05:44;;;;;;;11.47;7.23;;;4.80;99.90;;;;;;5026316;28;20557;-83
2022/01/17 10:08:15;;;;;;;10.53;7.07;;;4.80;99.90;;;;;;5025164;28;20026;-83
2022/01/17 10:10:57;;;;;;;10.27;6.77;;;4.80;99.90;;;;;;5026739;28;20029;-83
2022/01/17 10:13:34;;;;;;;10.63;6.40;;;4.80;99.90;;;;;;5024087;28;20041;-83
2022/01/17 10:16:01;;;;;;;10.20;6.30;;;4.90;99.90;;;;;;5026415;28;20140;-84
2022/01/17 10:18:54;;;;;;;8.50;5.97;;;4.80;99.90;;;;;;5022223;28;20107;-83
2022/01/17 10:21:39;;;;;;;9.90;6.17;;;4.90;99.90;;;;;;5028142;28;20030;-83
2022/01/17 10:27:00;;;;;;;11.67;7.83;;;4.90;99.90;;;;;;5024280;28;20159;-82
2022/01/17 10:37:19;;;;;;;9.40;5.90;;;5.30;99.90;;;;;;5027693;28;20076;-82
2022/01/17 10:40:06;;;;;;;8.87;5.53;;;5.40;99.90;;;;;;5022944;28;20100;-82
2022/01/17 10:42:37;;;;;;;8.43;4.97;;;5.40;99.90;;;;;;5027272;28;20731;-82
2022/01/17 10:45:18;;;;;;;8.10;5.33;;;5.30;99.90;;;;;;5030173;28;20350;-82
2022/01/17 10:47:46;;;;;;;9.10;5.57;;;5.20;99.90;;;;;;5026120;28;20026;-82
2022/01/17 10:50:15;;;;;;;9.07;5.37;;;5.10;99.90;;;;;;5030759;28;20029;-84
2022/01/17 10:52:43;;;;;;;8.83;5.50;;;5.20;99.90;;;;;;5029037;28;20721;-82
2022/01/17 10:55:15;;;;;;;13.43;6.57;;;5.20;99.90;;;;;;5023410;28;20060;-82
2022/01/17 10:57:43;;;;;;;10.07;5.73;;;5.30;99.90;;;;;;5024682;28;20057;-83
2022/01/17 11:00:22;;;;;;;8.60;5.17;;;5.30;99.90;;;;;;5024622;28;20025;-83
2022/01/17 11:02:52;;;;;;;10.30;6.30;;;5.50;99.90;;;;;;5031332;28;20084;-83
2022/01/17 11:05:21;;;;;;;11.23;5.80;;;5.60;99.90;;;;;;5031730;28;20382;-82
2022/01/17 11:07:48;;;;;;;12.30;6.10;;;5.60;99.90;;;;;;5029302;28;20029;-81
2022/01/17 11:10:20;;;;;;;16.27;6.33;;;5.70;99.90;;;;;;5027393;28;20029;-82
2022/01/17 11:12:47;;;;;;;7.77;4.80;;;5.80;99.90;;;;;;5014784;28;20100;-83
2022/01/17 11:15:14;;;;;;;11.47;6.43;;;5.90;99.90;;;;;;5032202;28;20053;-83
2022/01/17 11:17:48;;;;;;;9.33;6.00;;;6.10;99.90;;;;;;5029673;28;20072;-82
2022/01/17 11:20:15;;;;;;;9.23;5.97;;;6.00;99.90;;;;;;5029121;28;20052;-81
2022/01/17 11:22:44;;;;;;;13.83;6.20;;;6.00;99.90;;;;;;5030654;28;20025;-82
2022/01/17 11:25:12;;;;;;;9.20;5.87;;;6.00;99.90;;;;;;5026216;28;20108;-83
2022/01/17 11:27:39;;;;;;;13.80;5.43;;;5.80;99.90;;;;;;5024937;28;20065;-82
2022/01/17 11:30:05;;;;;;;8.37;5.63;;;5.80;99.90;;;;;;5028427;28;20028;-82
2022/01/17 11:32:31;;;;;;;11.03;4.80;;;5.80;99.90;;;;;;5024521;28;20076;-82
2022/01/17 11:35:00;;;;;;;8.97;6.07;;;5.80;99.90;;;;;;5025703;28;20137;-81
2022/01/17 11:37:27;;;;;;;8.80;5.70;;;5.70;99.90;;;;;;5024048;28;20025;-81
2022/01/17 11:39:55;;;;;;;8.50;5.20;;;5.70;99.90;;;;;;5027935;28;20025;-83
2022/01/17 11:42:32;;;;;;;10.23;5.47;;;5.60;99.90;;;;;;5016405;28;20029;-81
2022/01/17 11:44:58;;;;;;;9.00;5.57;;;5.80;99.90;;;;;;5025916;28;20545;-82
2022/01/17 11:47:48;;;;;;;10.60;5.73;;;5.80;99.90;;;;;;5016296;28;20026;-83
2022/01/17 11:50:32;;;;;;;7.97;5.07;;;5.90;99.90;;;;;;5014890;28;20032;-83
2022/01/17 11:53:18;;;;;;;7.20;4.80;;;6.00;99.90;;;;;;5025662;28;20021;-82
2022/01/17 11:55:48;;;;;;;10.15;5.25;;;6.10;99.90;;;;;;5027973;28;20379;-82
2022/01/17 11:58:38;;;;;;;10.13;5.60;;;6.20;99.90;;;;;;5023806;28;20037;-82
2022/01/17 12:01:04;;;;;;;6.83;4.60;;;6.40;99.90;;;;;;5025420;28;20029;-82
2022/01/17 12:03:45;;;;;;;7.30;4.80;;;6.40;99.90;;;;;;5023423;28;20025;-82
2022/01/17 12:06:34;;;;;;;7.73;4.70;;;6.50;99.90;;;;;;5026557;28;20774;-82
2022/01/17 12:09:27;;;;;;;9.00;5.10;;;6.50;99.90;;;;;;5028434;28;20018;-84
2022/01/17 12:11:56;;;;;;;7.37;5.00;;;6.30;99.90;;;;;;5032524;28;20032;-83
2022/01/17 12:14:27;;;;;;;9.20;5.50;;;6.30;99.90;;;;;;5023974;28;20022;-83
2022/01/17 12:16:54;;;;;;;8.57;5.70;;;6.50;99.90;;;;;;5032082;28;20467;-83
2022/01/17 12:19:20;;;;;;;9.97;4.83;;;6.60;99.90;;;;;;5029479;28;20021;-83
2022/01/17 12:21:57;;;;;;;14.30;5.40;;;6.40;99.90;;;;;;5032140;28;20096;-83
2022/01/17 12:24:25;;;;;;;10.23;4.97;;;6.40;99.90;;;;;;5030907;28;20060;-83
2022/01/17 12:27:03;;;;;;;8.93;4.93;;;6.40;99.90;;;;;;5033404;28;20021;-83
2022/01/17 12:29:47;;;;;;;12.40;5.00;;;6.40;99.90;;;;;;5034106;28;20151;-83
2022/01/17 12:32:25;;;;;;;6.43;4.53;;;6.30;99.90;;;;;;5034006;28;20060;-83
2022/01/17 12:34:56;;;;;;;10.23;5.07;;;6.40;99.90;;;;;;5033712;28;20528;-83
2022/01/17 12:37:46;;;;;;;8.27;5.03;;;6.30;99.90;;;;;;5032917;28;20460;-83
2022/01/17 12:40:17;;;;;;;7.43;4.40;;;6.30;99.90;;;;;;5032666;28;20808;-83
2022/01/17 12:42:48;;;;;;;6.87;4.63;;;6.20;99.90;;;;;;5032478;28;20025;-82
2022/01/17 12:45:40;;;;;;;6.67;4.43;;;6.30;99.90;;;;;;5031152;28;20029;-82
2022/01/17 12:48:09;;;;;;;7.67;4.77;;;6.30;99.90;;;;;;5025131;28;20149;-83
2022/01/17 12:50:37;;;;;;;7.10;4.37;;;6.30;99.90;;;;;;5032371;28;20100;-82
2022/01/17 12:53:05;;;;;;;11.10;4.53;;;6.30;99.90;;;;;;5030487;28;20029;-83
2022/01/17 12:55:37;;;;;;;8.37;4.50;;;6.40;99.90;;;;;;5024089;28;20070;-83
2022/01/17 12:58:11;;;;;;;6.97;4.30;;;6.50;99.90;;;;;;5030068;28;20032;-83
2022/01/17 13:00:37;;;;;;;9.30;3.90;;;6.40;99.90;;;;;;5033512;28;20094;-82
2022/01/17 13:03:03;;;;;;;7.93;3.93;;;6.50;99.90;;;;;;5034058;28;20478;-83
2022/01/17 13:05:31;;;;;;;6.17;3.63;;;6.60;99.90;;;;;;5033633;28;20025;-83
2022/01/17 13:08:02;;;;;;;7.00;4.27;;;6.70;99.90;;;;;;5034383;28;20097;-81
2022/01/17 13:10:28;;;;;;;6.33;3.93;;;6.70;99.90;;;;;;5034315;28;20375;-80
2022/01/17 13:12:56;;;;;;;5.90;3.87;;;6.60;99.90;;;;;;5035304;28;20026;-80
2022/01/17 13:15:23;;;;;;;8.20;4.23;;;6.60;99.90;;;;;;5034640;28;20415;-79
2022/01/17 13:17:52;;;;;;;9.87;4.60;;;6.40;99.90;;;;;;5033913;28;20364;-82